Terminal Aerodrome Forecast
Issued by NWS Bismarck, ND

Home | Current Version | Previous Version | Graphics & Text | Print | Product List | Glossary On
Versions: 1 2 3 4 5 6 7 8 9 10 11 12 13 14 15 16 17 18 19 20 21
000
FTUS43 KBIS 252300
TAFISN
TAF
KISN 252320Z 2600/2624 29006KT P6SM BKN035
     FM260200 00000KT P6SM SCT140
     FM260700 10006KT P6SM BKN015
      TEMPO 2608/2611 3SM -SN
     FM261500 10008KT P6SM BKN030=

USA.gov is the U.S. government's official web portal to all federal, state and local government web resources and services.